»·PEaware :: UAL1399 KSAN-KSNA

UAL1399 :: KSAN-KSNA

FLIGHT INFORMATION

Flight Status: Arrived
Operator:
United Airlines
More flights by this operator :: More flights under this callsign
Pilot: David C. (16084)
Aircraft: SAAB 340
(SF34)
More flights by this aircraft type
Origin: KSAN San Diego Intl-Lindbergh
United States
Destination: KSNA John Wayne-Orange Co
United States
More flights between these airports :: More routes between these airports
Route: +PEBLE6 SLI
File this flight plan on PilotEdge
Remarks: SANP4
Altitude:
(Current/Filed)
8,000ft
Speed:
(Current/Filed)
276kts
Departed: 13-Feb-20 12:49 PM
Arrived: 13-Feb-20 01:13 PM
Distance/Time
Traveled:
66nm/0:24
Distance/Time
To Go:
Arrived

Flight Plot

Page will automatically refresh every two minutes.


Map Options




Map Legend


Flown Route
Filed Route
Departure Airport
Arrival Airport
Navaid (VOR, NDB)
Fix

Horizontal Profiles

Position Reports

Time Latitude Longitude Heading Altitude Ground
Speed
13-Feb-20 12:21 32.733725 -117.203506 105 20ft 0kts
13-Feb-20 12:22 32.733725 -117.203506 105 20ft 0kts
13-Feb-20 12:23 32.733725 -117.203506 105 20ft 0kts
13-Feb-20 12:24 32.733725 -117.203506 105 20ft 0kts
13-Feb-20 12:25 32.733725 -117.203506 105 20ft 0kts
13-Feb-20 12:26 32.733725 -117.203506 105 20ft 0kts
13-Feb-20 12:27 32.733725 -117.203506 105 20ft 0kts
13-Feb-20 12:28 32.733725 -117.203506 105 20ft 0kts
13-Feb-20 12:30 32.733725 -117.203506 105 20ft 0kts
13-Feb-20 12:31 32.733725 -117.203506 105 20ft 0kts
13-Feb-20 12:32 32.733725 -117.203506 105 20ft 0kts
13-Feb-20 12:33 32.733725 -117.203506 105 20ft 0kts
13-Feb-20 12:34 32.733725 -117.203506 105 20ft 0kts
13-Feb-20 12:35 32.733725 -117.203506 105 20ft 0kts
13-Feb-20 12:36 32.733725 -117.203506 105 20ft 0kts
13-Feb-20 12:37 32.733725 -117.203506 105 20ft 0kts
13-Feb-20 12:38 32.733725 -117.203506 105 20ft 0kts
13-Feb-20 12:39 32.733725 -117.203506 105 20ft 0kts
13-Feb-20 12:40 32.733725 -117.203506 105 20ft 0kts
13-Feb-20 12:41 32.734292 -117.202612 21 19ft 0kts
13-Feb-20 12:42 32.735292 -117.201236 100 21ft 13kts
13-Feb-20 12:43 32.733850 -117.195179 106 21ft 22kts
13-Feb-20 12:44 32.732268 -117.188573 107 20ft 18kts
13-Feb-20 12:45 32.730842 -117.182788 108 18ft 17kts
13-Feb-20 12:46 32.729513 -117.177222 104 19ft 17kts
13-Feb-20 12:46 32.729503 -117.176799 78 19ft 0kts
13-Feb-20 12:48 32.729798 -117.176245 25 19ft 8kts
13-Feb-20 12:49 32.732352 -117.184676 286 19ft 114kts
13-Feb-20 12:49 32.747458 -117.222992 303 1261ft 182kts
13-Feb-20 12:50 32.775083 -117.272836 323 3571ft 186kts
13-Feb-20 12:52 32.814791 -117.326946 305 5874ft 191kts
13-Feb-20 12:52 32.840010 -117.370762 303 7295ft 196kts
13-Feb-20 12:53 32.872649 -117.427890 304 7992ft 232kts
13-Feb-20 12:54 32.921153 -117.482237 329 7981ft 252kts
13-Feb-20 12:55 32.980635 -117.527272 308 7952ft 255kts
13-Feb-20 12:56 33.023863 -117.594312 308 7972ft 255kts
13-Feb-20 12:57 33.067731 -117.660954 308 7972ft 256kts
13-Feb-20 12:58 33.112102 -117.728676 307 7973ft 260kts
13-Feb-20 12:59 33.156543 -117.797048 307 7972ft 261kts
13-Feb-20 13:00 33.212158 -117.847355 344 7981ft 259kts
13-Feb-20 13:01 33.281345 -117.872081 343 7976ft 261kts
13-Feb-20 13:02 33.350914 -117.897270 343 7976ft 261kts
13-Feb-20 13:03 33.420432 -117.922474 343 7973ft 262kts
13-Feb-20 13:04 33.488863 -117.900940 22 6532ft 252kts
13-Feb-20 13:05 33.549894 -117.871196 22 5987ft 225kts
13-Feb-20 13:06 33.605862 -117.843843 22 5977ft 198kts
13-Feb-20 13:07 33.652849 -117.824059 13 5492ft 170kts
13-Feb-20 13:08 33.699428 -117.812522 20 3518ft 172kts
13-Feb-20 13:09 33.738134 -117.814413 283 1694ft 149kts
13-Feb-20 13:10 33.712617 -117.846051 205 877ft 139kts
13-Feb-20 13:11 33.679553 -117.866376 208 80ft 118kts
13-Feb-20 13:12 33.669393 -117.871871 142 61ft 9kts
13-Feb-20 13:13 33.669217 -117.871669 130 61ft 0kts
13-Feb-20 13:14 33.669217 -117.871669 130 61ft 0kts
13-Feb-20 13:15 33.670488 -117.869471 41 61ft 16kts
13-Feb-20 13:16 33.674519 -117.866216 27 61ft 17kts
13-Feb-20 13:17 33.675705 -117.864612 118 61ft 0kts
13-Feb-20 13:18 33.675705 -117.864612 118 61ft 0kts

Navigation Log

Ident Type
Flight plan parsing failed, navigation log unavailable